Time;durP1;ratioP1;P1;durP2;ratioP2;P2;SDS_P1;SDS_P2;PMS_P1;PMS_P2;Temp;Humidity;BMP_temperature;BMP_pressure;BME280_temperature;BME280_humidity;BME280_pressure;Samples;Min_cycle;Max_cycle;Signal;HPM_P1;HPM_P2
2023/03/17 00:00:35;;;;;;;1.00;1.00;;;17.40;64.00;;;;;;5056600;28;43457;-77
2023/03/17 00:03:03;;;;;;;1.20;1.20;;;17.40;64.10;;;;;;5054592;28;45259;-77
2023/03/17 00:05:34;;;;;;;1.20;1.20;;;17.30;64.20;;;;;;5059338;28;45235;-76
2023/03/17 00:08:05;;;;;;;1.20;1.20;;;17.30;64.10;;;;;;5045397;28;44683;-76
2023/03/17 00:10:33;;;;;;;1.07;1.07;;;17.50;63.90;;;;;;5055068;28;43445;-77
2023/03/17 00:13:00;;;;;;;1.10;1.10;;;17.50;63.50;;;;;;5058281;28;43477;-75
2023/03/17 00:15:29;;;;;;;1.00;1.00;;;17.50;63.30;;;;;;5053601;28;44128;-73
2023/03/17 00:17:57;;;;;;;1.20;1.20;;;17.50;63.40;;;;;;5055761;28;43450;-75
2023/03/17 00:20:26;;;;;;;1.10;1.10;;;17.50;63.60;;;;;;5055217;28;43467;-77
2023/03/17 00:22:56;;;;;;;1.10;1.10;;;17.50;63.70;;;;;;5057843;28;43597;-77
2023/03/17 00:25:26;;;;;;;0.97;0.97;;;17.50;64.30;;;;;;5068544;27;45656;-76
2023/03/17 00:27:54;;;;;;;1.20;1.20;;;17.40;63.50;;;;;;5060297;28;44068;-74
2023/03/17 00:30:23;;;;;;;1.10;1.10;;;17.40;63.70;;;;;;5057145;28;43419;-74
2023/03/17 00:32:51;;;;;;;1.20;1.20;;;17.40;63.70;;;;;;5059557;28;44085;-76
2023/03/17 00:35:21;;;;;;;1.07;1.07;;;17.40;63.90;;;;;;5060489;28;45699;-77
2023/03/17 00:37:51;;;;;;;1.00;1.00;;;17.30;63.90;;;;;;5059193;28;45168;-78
2023/03/17 00:40:22;;;;;;;1.10;1.10;;;17.40;63.80;;;;;;5062677;28;43505;-77
2023/03/17 00:42:51;;;;;;;1.23;1.23;;;17.40;63.90;;;;;;5056759;28;43636;-74
2023/03/17 00:45:20;;;;;;;1.20;1.20;;;17.40;64.00;;;;;;5053678;28;46350;-76
2023/03/17 00:47:48;;;;;;;1.13;1.13;;;17.30;63.90;;;;;;5064249;28;43473;-79
2023/03/17 00:50:20;;;;;;;1.00;1.00;;;17.30;64.00;;;;;;5059372;28;43505;-77
2023/03/17 00:52:49;;;;;;;1.00;1.00;;;17.30;64.90;;;;;;5055397;28;43474;-76
2023/03/17 00:55:17;;;;;;;1.13;1.13;;;17.40;64.00;;;;;;5054059;28;44965;-75
2023/03/17 00:57:47;;;;;;;1.03;1.03;;;17.50;63.60;;;;;;5058237;28;43586;-78
2023/03/17 01:00:21;;;;;;;1.00;1.00;;;17.50;63.40;;;;;;5055686;28;43916;-76
2023/03/17 01:02:50;;;;;;;1.00;1.00;;;17.50;63.30;;;;;;5058318;28;43475;-78
2023/03/17 01:05:18;;;;;;;1.07;1.07;;;17.50;63.50;;;;;;5052869;28;43922;-77
2023/03/17 01:07:47;;;;;;;1.10;1.10;;;17.50;63.80;;;;;;5058369;28;44209;-77
2023/03/17 01:10:16;;;;;;;1.00;1.00;;;17.50;63.60;;;;;;5060367;28;43514;-77
2023/03/17 01:12:46;;;;;;;1.00;1.00;;;17.50;63.50;;;;;;5052904;28;43535;-76
2023/03/17 01:15:14;;;;;;;1.20;1.20;;;17.40;63.60;;;;;;5055463;28;43904;-75
2023/03/17 01:17:42;;;;;;;1.10;1.10;;;17.40;63.70;;;;;;5058221;28;44727;-73
2023/03/17 01:20:15;;;;;;;1.30;1.30;;;17.40;63.80;;;;;;5051091;28;43450;-78
2023/03/17 01:22:43;;;;;;;1.20;1.20;;;17.30;63.80;;;;;;5057790;28;43514;-75
2023/03/17 01:25:11;;;;;;;1.17;1.17;;;17.40;63.90;;;;;;5052522;28;43944;-76
2023/03/17 01:27:40;;;;;;;1.07;1.07;;;17.40;63.80;;;;;;5056860;28;44359;-77
2023/03/17 01:30:20;;;;;;;0.97;0.97;;;17.30;63.70;;;;;;5060382;28;43896;-75
2023/03/17 01:32:48;;;;;;;1.00;1.00;;;17.30;63.80;;;;;;5061983;28;43568;-78
2023/03/17 01:35:17;;;;;;;1.10;1.10;;;17.40;64.00;;;;;;5052764;28;45569;-73
2023/03/17 01:37:45;;;;;;;0.97;0.97;;;17.30;64.00;;;;;;5062662;28;44088;-76
2023/03/17 01:40:16;;;;;;;1.33;1.33;;;17.30;64.10;;;;;;5059208;28;43350;-77
2023/03/17 01:42:45;;;;;;;1.27;1.27;;;17.40;63.90;;;;;;5052381;28;43752;-76
2023/03/17 01:45:47;;;;;;;1.10;1.10;;;17.50;63.40;;;;;;5059119;28;43766;-76
2023/03/17 01:48:17;;;;;;;1.00;1.00;;;17.60;63.20;;;;;;5054721;28;43502;-71
2023/03/17 01:50:45;;;;;;;1.10;1.10;;;17.60;63.10;;;;;;5063231;28;43517;-77
2023/03/17 01:53:14;;;;;;;1.00;1.00;;;17.60;63.30;;;;;;5061174;28;44028;-77
2023/03/17 01:55:43;;;;;;;1.00;1.00;;;17.50;63.40;;;;;;5055831;28;43918;-74
2023/03/17 01:58:12;;;;;;;1.20;1.20;;;17.50;63.20;;;;;;5057384;28;45047;-76
2023/03/17 02:00:40;;;;;;;1.10;1.10;;;17.50;63.40;;;;;;5060155;28;43468;-78
2023/03/17 02:03:09;;;;;;;1.10;1.10;;;17.50;63.50;;;;;;5061987;28;43449;-72
2023/03/17 02:05:38;;;;;;;1.17;1.17;;;17.40;63.50;;;;;;5056409;28;45970;-78
2023/03/17 02:08:10;;;;;;;1.00;1.00;;;17.40;63.70;;;;;;5051150;28;44745;-74
2023/03/17 02:10:38;;;;;;;1.30;1.30;;;17.40;63.90;;;;;;5056353;28;43498;-77
2023/03/17 02:13:06;;;;;;;1.13;1.13;;;17.40;63.70;;;;;;5053888;28;44369;-78
2023/03/17 02:15:39;;;;;;;1.10;1.10;;;17.40;63.70;;;;;;5059150;28;45989;-77
2023/03/17 02:18:07;;;;;;;1.13;1.13;;;17.40;63.70;;;;;;5060479;28;44721;-78
2023/03/17 02:21:14;;;;;;;1.00;1.00;;;17.30;63.70;;;;;;5053773;28;43415;-78
2023/03/17 02:23:43;;;;;;;1.03;1.03;;;17.30;63.80;;;;;;5054703;28;43464;-77
2023/03/17 02:26:11;;;;;;;1.20;1.20;;;17.30;64.10;;;;;;5054302;28;45308;-76
2023/03/17 02:28:44;;;;;;;1.10;1.10;;;17.40;63.90;;;;;;5055751;28;43765;-79
2023/03/17 02:31:13;;;;;;;1.13;1.13;;;17.50;63.60;;;;;;5052455;28;43458;-76
2023/03/17 02:33:41;;;;;;;1.20;1.20;;;17.50;63.30;;;;;;5053053;28;43821;-77
2023/03/17 02:36:09;;;;;;;1.10;1.10;;;17.50;64.10;;;;;;5055387;28;43947;-75
2023/03/17 02:38:37;;;;;;;1.10;1.10;;;17.50;63.50;;;;;;5075410;27;43395;-78
2023/03/17 02:41:08;;;;;;;1.10;1.10;;;17.40;63.70;;;;;;5063138;28;43561;-77
2023/03/17 02:43:37;;;;;;;1.10;1.10;;;17.40;63.60;;;;;;5054177;28;43972;-76
2023/03/17 02:46:05;;;;;;;1.00;1.00;;;17.40;63.40;;;;;;5054814;28;43854;-80
2023/03/17 02:48:34;;;;;;;1.00;1.00;;;17.40;63.50;;;;;;5059284;28;44792;-73
2023/03/17 02:51:01;;;;;;;1.00;1.00;;;17.40;63.70;;;;;;5063710;28;43449;-77
2023/03/17 02:53:30;;;;;;;1.00;1.00;;;17.40;63.70;;;;;;5050105;28;43769;-78
2023/03/17 02:55:58;;;;;;;1.10;1.10;;;17.30;63.80;;;;;;5055010;28;46025;-78
2023/03/17 02:58:27;;;;;;;1.20;1.20;;;17.40;64.00;;;;;;5057356;28;43625;-76
2023/03/17 03:00:55;;;;;;;1.00;1.00;;;17.40;63.70;;;;;;5053690;28;43478;-78
2023/03/17 03:03:23;;;;;;;1.33;1.33;;;17.50;63.40;;;;;;5052621;28;43534;-77
2023/03/17 03:05:51;;;;;;;0.90;0.90;;;17.50;63.20;;;;;;5059443;28;45676;-77
2023/03/17 03:08:20;;;;;;;1.10;1.10;;;17.50;63.20;;;;;;5060074;28;43443;-77
2023/03/17 03:10:48;;;;;;;1.03;1.03;;;17.50;63.30;;;;;;5050349;28;43477;-76
2023/03/17 03:13:16;;;;;;;1.10;1.10;;;17.50;63.60;;;;;;5059709;28;44692;-75
2023/03/17 03:15:46;;;;;;;1.10;1.10;;;17.50;63.50;;;;;;5051306;28;45994;-79
2023/03/17 03:18:14;;;;;;;1.10;1.10;;;17.50;63.40;;;;;;5053686;28;43877;-76
2023/03/17 03:20:43;;;;;;;1.00;1.00;;;17.40;63.40;;;;;;5054356;28;43918;-77
2023/03/17 03:23:11;;;;;;;1.00;1.00;;;17.40;63.50;;;;;;5063031;28;43568;-78
2023/03/17 03:25:39;;;;;;;1.10;1.10;;;17.40;63.70;;;;;;5073445;27;45650;-75
2023/03/17 03:28:08;;;;;;;1.10;1.10;;;17.30;63.80;;;;;;5055255;28;43980;-75
2023/03/17 03:30:36;;;;;;;1.30;1.30;;;17.40;63.90;;;;;;5070394;27;43499;-78
2023/03/17 03:33:05;;;;;;;1.20;1.20;;;17.30;63.60;;;;;;5057667;28;43414;-78
2023/03/17 03:35:34;;;;;;;1.10;1.10;;;17.30;63.70;;;;;;5050269;28;43726;-77
2023/03/17 03:38:02;;;;;;;1.17;1.17;;;17.40;63.80;;;;;;5056338;28;44719;-77
2023/03/17 03:40:30;;;;;;;1.40;1.40;;;17.30;63.80;;;;;;5050293;28;43804;-75
2023/03/17 03:42:59;;;;;;;1.00;1.00;;;17.30;63.90;;;;;;5057927;28;44370;-78
2023/03/17 03:45:32;;;;;;;1.20;1.20;;;17.40;64.10;;;;;;5061010;28;44705;-79
2023/03/17 03:48:00;;;;;;;1.10;1.10;;;17.40;63.70;;;;;;5055714;28;43470;-75
2023/03/17 03:50:30;;;;;;;1.00;1.00;;;17.50;63.30;;;;;;5055867;28;43470;-78
2023/03/17 03:52:58;;;;;;;1.10;1.10;;;17.60;63.10;;;;;;5051285;28;44005;-77
2023/03/17 03:55:26;;;;;;;1.00;1.00;;;17.60;63.10;;;;;;5055138;28;45714;-78
2023/03/17 03:57:54;;;;;;;1.10;1.10;;;17.50;63.20;;;;;;5053952;28;45014;-77
2023/03/17 04:00:23;;;;;;;1.00;1.00;;;17.50;63.30;;;;;;5062097;28;44169;-79
2023/03/17 04:02:51;;;;;;;0.93;0.93;;;17.50;63.20;;;;;;5061530;28;43379;-77
2023/03/17 04:05:19;;;;;;;1.00;1.00;;;17.50;63.30;;;;;;5057930;28;45984;-75
2023/03/17 04:07:48;;;;;;;1.10;1.10;;;17.40;63.30;;;;;;5059942;28;43717;-73
2023/03/17 04:10:17;;;;;;;1.00;1.00;;;17.40;63.50;;;;;;5062560;28;43407;-75
2023/03/17 04:12:45;;;;;;;1.00;1.00;;;17.40;63.70;;;;;;5060399;28;43463;-77
2023/03/17 04:15:15;;;;;;;1.00;1.00;;;17.30;63.80;;;;;;5059068;28;45243;-75
2023/03/17 04:17:43;;;;;;;1.00;1.00;;;17.40;63.70;;;;;;5064141;28;44031;-77
2023/03/17 04:20:12;;;;;;;0.90;0.90;;;17.40;63.70;;;;;;5064426;28;43857;-76
2023/03/17 04:22:40;;;;;;;1.10;1.10;;;17.40;63.70;;;;;;5060198;28;43396;-74
2023/03/17 04:25:10;;;;;;;1.20;1.20;;;17.30;63.70;;;;;;5061941;28;45523;-77
2023/03/17 04:27:38;;;;;;;1.00;1.00;;;17.30;63.80;;;;;;5058629;28;45100;-77
2023/03/17 04:30:07;;;;;;;1.00;1.00;;;17.30;64.10;;;;;;5056047;28;43381;-77
2023/03/17 04:32:35;;;;;;;1.00;1.00;;;17.30;63.80;;;;;;5064923;28;43608;-79
2023/03/17 04:35:03;;;;;;;1.00;1.00;;;17.30;63.80;;;;;;5064073;28;43608;-75
2023/03/17 04:37:31;;;;;;;1.10;1.10;;;17.30;63.80;;;;;;5058468;28;45143;-76
2023/03/17 04:40:01;;;;;;;1.10;1.10;;;17.30;64.00;;;;;;5053906;28;43493;-75
2023/03/17 04:42:30;;;;;;;1.10;1.10;;;17.20;63.90;;;;;;5053947;28;43520;-77
2023/03/17 04:44:59;;;;;;;1.10;1.10;;;17.30;64.20;;;;;;5055866;28;45763;-76
2023/03/17 04:47:27;;;;;;;0.90;0.90;;;17.30;64.10;;;;;;5059881;28;44141;-76
2023/03/17 04:49:54;;;;;;;1.10;1.10;;;17.40;63.70;;;;;;5061331;28;43472;-76
2023/03/17 04:52:22;;;;;;;1.10;1.10;;;17.50;63.50;;;;;;5051644;28;43535;-77
2023/03/17 04:54:50;;;;;;;1.30;1.30;;;17.50;63.10;;;;;;5057522;28;44077;-75
2023/03/17 04:57:18;;;;;;;1.10;1.10;;;17.50;63.10;;;;;;5059607;28;44156;-76
2023/03/17 04:59:48;;;;;;;1.10;1.10;;;17.50;63.30;;;;;;5058309;28;43469;-78
2023/03/17 05:02:17;;;;;;;1.10;1.10;;;17.50;63.30;;;;;;5060819;28;45316;-77
2023/03/17 05:04:45;;;;;;;0.90;0.90;;;17.50;63.20;;;;;;5056557;28;46057;-76
2023/03/17 05:07:13;;;;;;;0.97;0.97;;;17.50;63.30;;;;;;5053796;28;43438;-78
2023/03/17 05:09:41;;;;;;;1.13;1.13;;;17.50;63.40;;;;;;5056155;28;43527;-78
2023/03/17 05:12:10;;;;;;;1.10;1.10;;;17.50;63.50;;;;;;5074929;27;43637;-76
2023/03/17 05:14:38;;;;;;;1.10;1.10;;;17.40;63.60;;;;;;5055894;28;45835;-77
2023/03/17 05:17:08;;;;;;;0.87;0.87;;;17.40;63.70;;;;;;5064705;28;44565;-75
2023/03/17 05:19:36;;;;;;;0.90;0.90;;;17.40;63.40;;;;;;5058442;28;45291;-77
2023/03/17 05:22:04;;;;;;;1.00;1.00;;;17.40;63.50;;;;;;5059610;28;43495;-77
2023/03/17 05:24:32;;;;;;;1.10;1.10;;;17.40;63.60;;;;;;5062224;28;46068;-78
2023/03/17 05:27:00;;;;;;;0.90;0.90;;;17.40;63.70;;;;;;5061624;28;43573;-77
2023/03/17 05:29:28;;;;;;;1.03;1.03;;;17.30;63.70;;;;;;5058156;28;43505;-78
2023/03/17 05:31:56;;;;;;;1.00;1.00;;;17.30;63.80;;;;;;5064218;28;44071;-76
2023/03/17 05:34:26;;;;;;;1.07;1.07;;;17.40;63.80;;;;;;5059628;28;43935;-77
2023/03/17 05:36:54;;;;;;;0.90;0.90;;;17.30;63.70;;;;;;5051794;28;44092;-78
2023/03/17 05:39:22;;;;;;;1.00;1.00;;;17.40;63.80;;;;;;5059020;28;43500;-76
2023/03/17 05:41:50;;;;;;;0.97;0.97;;;17.40;63.80;;;;;;5059860;28;43505;-74
2023/03/17 05:44:19;;;;;;;1.10;1.10;;;17.40;63.90;;;;;;5054465;28;43692;-76
2023/03/17 05:46:47;;;;;;;1.00;1.00;;;17.30;63.80;;;;;;5054055;28;44158;-78
2023/03/17 05:49:15;;;;;;;1.00;1.00;;;17.40;64.80;;;;;;5054686;28;43449;-77
2023/03/17 05:51:44;;;;;;;1.10;1.10;;;17.40;63.70;;;;;;5052459;28;43427;-77
2023/03/17 05:54:12;;;;;;;1.10;1.10;;;17.50;63.30;;;;;;5058022;28;43903;-76
2023/03/17 05:56:41;;;;;;;1.10;1.10;;;17.60;63.10;;;;;;5053017;28;44992;-75
2023/03/17 05:59:13;;;;;;;0.90;0.90;;;17.60;62.90;;;;;;5056889;28;43507;-76
2023/03/17 06:01:41;;;;;;;1.10;1.10;;;17.60;63.10;;;;;;5057711;28;43423;-76
2023/03/17 06:04:09;;;;;;;1.13;1.13;;;17.60;63.30;;;;;;5055761;28;45691;-76
2023/03/17 06:06:37;;;;;;;1.00;1.00;;;17.50;63.00;;;;;;5060482;28;43513;-76
2023/03/17 06:09:07;;;;;;;1.00;1.00;;;17.50;63.10;;;;;;5054165;28;43411;-79
2023/03/17 06:11:35;;;;;;;1.00;1.00;;;17.50;63.30;;;;;;5055370;28;43544;-77
2023/03/17 06:14:03;;;;;;;1.20;1.20;;;17.40;63.30;;;;;;5052700;28;45768;-79
2023/03/17 06:16:32;;;;;;;1.10;1.10;;;17.40;63.60;;;;;;5057462;28;43467;-78
2023/03/17 06:19:01;;;;;;;0.90;0.90;;;17.40;63.80;;;;;;5064537;27;43438;-76
2023/03/17 06:21:29;;;;;;;1.10;1.10;;;17.40;63.60;;;;;;5067662;28;44109;-72
2023/03/17 06:23:57;;;;;;;0.90;0.90;;;17.40;63.50;;;;;;5062579;28;44685;-75
2023/03/17 06:26:26;;;;;;;1.00;1.00;;;17.40;63.60;;;;;;5067034;28;44737;-76
2023/03/17 06:28:54;;;;;;;1.10;1.10;;;17.40;63.70;;;;;;5065445;28;44022;-77
2023/03/17 06:31:22;;;;;;;1.13;1.13;;;17.40;63.80;;;;;;5063513;28;43586;-78
2023/03/17 06:33:50;;;;;;;1.10;1.10;;;17.30;63.90;;;;;;5064856;28;45685;-77
2023/03/17 06:36:18;;;;;;;1.20;1.20;;;17.30;63.80;;;;;;5071510;28;44596;-78
2023/03/17 06:38:46;;;;;;;1.07;1.07;;;17.30;63.60;;;;;;5062697;28;43446;-77
2023/03/17 06:41:15;;;;;;;1.03;1.03;;;17.40;63.80;;;;;;5063813;28;43458;-77
2023/03/17 06:43:44;;;;;;;1.03;1.03;;;17.40;63.80;;;;;;5064793;28;43893;-77
2023/03/17 06:46:12;;;;;;;1.10;1.10;;;17.40;63.80;;;;;;5067227;27;44577;-74
2023/03/17 06:48:40;;;;;;;1.00;1.00;;;17.40;63.90;;;;;;5060376;28;43467;-77
2023/03/17 06:51:08;;;;;;;1.10;1.10;;;17.30;63.90;;;;;;5056265;28;43532;-77
2023/03/17 06:53:36;;;;;;;1.20;1.20;;;17.40;63.70;;;;;;5067604;28;45003;-72
2023/03/17 06:56:05;;;;;;;1.10;1.10;;;17.50;63.40;;;;;;5069475;28;44586;-77
2023/03/17 06:58:33;;;;;;;0.97;0.97;;;17.60;63.00;;;;;;5053132;28;43606;-77
2023/03/17 07:01:03;;;;;;;0.90;0.90;;;17.60;62.80;;;;;;5055255;28;43455;-74
2023/03/17 07:03:31;;;;;;;1.10;1.10;;;17.60;62.80;;;;;;5058909;28;44114;-75
2023/03/17 07:05:59;;;;;;;0.90;0.90;;;17.60;63.20;;;;;;5054422;28;43515;-77
2023/03/17 07:08:29;;;;;;;1.10;1.10;;;17.60;63.00;;;;;;5047836;28;43466;-76
2023/03/17 07:10:57;;;;;;;0.90;0.90;;;17.60;63.70;;;;;;5056514;28;43548;-79
2023/03/17 07:13:26;;;;;;;1.00;1.00;;;17.50;63.00;;;;;;5057976;28;44732;-77
2023/03/17 07:15:54;;;;;;;1.00;1.00;;;17.50;63.20;;;;;;5050988;28;44668;-77
2023/03/17 07:18:24;;;;;;;0.90;0.90;;;17.40;63.30;;;;;;5057591;28;43453;-77
2023/03/17 07:20:52;;;;;;;1.00;1.00;;;17.40;63.50;;;;;;5050025;28;43624;-79
2023/03/17 07:23:21;;;;;;;1.00;1.00;;;17.40;63.50;;;;;;5055004;28;45688;-79
2023/03/17 07:25:49;;;;;;;0.83;0.83;;;17.40;63.40;;;;;;5052528;28;43995;-75
2023/03/17 07:28:18;;;;;;;1.07;1.07;;;17.40;64.30;;;;;;5057981;28;43767;-77
2023/03/17 07:30:48;;;;;;;1.00;1.00;;;17.40;63.70;;;;;;5048955;28;44168;-77
2023/03/17 07:33:16;;;;;;;1.00;1.00;;;17.30;63.70;;;;;;5060177;28;45895;-72
2023/03/17 07:35:46;;;;;;;1.10;1.10;;;17.30;63.80;;;;;;5060043;28;43388;-77
2023/03/17 07:38:14;;;;;;;0.93;0.93;;;17.30;63.70;;;;;;5058757;28;43969;-76
2023/03/17 07:40:42;;;;;;;0.97;0.97;;;17.40;63.70;;;;;;5057262;28;43419;-78
2023/03/17 07:43:10;;;;;;;0.90;0.90;;;17.30;63.70;;;;;;5055699;28;45910;-79
2023/03/17 07:45:38;;;;;;;1.00;1.00;;;17.30;63.80;;;;;;5060322;28;43533;-77
2023/03/17 07:48:07;;;;;;;1.00;1.00;;;17.30;63.90;;;;;;5064638;28;45513;-74
2023/03/17 07:50:35;;;;;;;1.00;1.00;;;17.30;64.00;;;;;;5056929;28;43831;-76
2023/03/17 07:53:05;;;;;;;1.10;1.10;;;17.30;64.10;;;;;;5054846;28;45801;-77
2023/03/17 07:55:33;;;;;;;1.13;1.13;;;17.40;63.90;;;;;;5057229;28;44710;-77
2023/03/17 07:58:01;;;;;;;1.00;1.00;;;17.50;63.50;;;;;;5053599;28;44094;-77
2023/03/17 08:00:29;;;;;;;1.10;1.10;;;17.60;63.20;;;;;;5058420;28;43558;-77
2023/03/17 08:02:58;;;;;;;1.00;1.00;;;17.60;63.00;;;;;;5051308;28;45707;-76
2023/03/17 08:05:36;;;;;;;1.00;1.00;;;17.60;63.20;;;;;;5052834;28;45343;-76
2023/03/17 08:08:06;;;;;;;1.00;1.00;;;17.50;63.30;;;;;;5061746;28;43991;-77
2023/03/17 08:10:34;;;;;;;1.00;1.00;;;17.50;63.20;;;;;;5056017;28;43490;-78
2023/03/17 08:13:03;;;;;;;1.10;1.10;;;17.50;63.20;;;;;;5062196;28;43700;-76
2023/03/17 08:15:31;;;;;;;0.93;0.93;;;17.50;63.30;;;;;;5058541;28;45032;-77
2023/03/17 08:17:59;;;;;;;1.03;1.03;;;17.50;63.40;;;;;;5053290;28;43381;-77
2023/03/17 08:20:28;;;;;;;1.00;1.00;;;17.50;63.50;;;;;;5056767;28;43427;-77
2023/03/17 08:22:57;;;;;;;1.00;1.00;;;17.40;63.70;;;;;;5056800;28;43840;-76
2023/03/17 08:25:26;;;;;;;1.00;1.00;;;17.40;63.60;;;;;;5062637;28;44826;-77
2023/03/17 08:27:54;;;;;;;1.00;1.00;;;17.40;63.40;;;;;;5053831;28;43478;-76
2023/03/17 08:30:22;;;;;;;0.90;0.90;;;17.40;63.50;;;;;;5060393;28;44007;-75
2023/03/17 08:32:51;;;;;;;0.97;0.97;;;17.40;63.50;;;;;;5058351;28;46049;-76
2023/03/17 08:35:19;;;;;;;1.07;1.07;;;17.40;63.70;;;;;;5054501;28;43497;-76
2023/03/17 08:37:48;;;;;;;1.00;1.00;;;17.40;63.70;;;;;;5060826;28;44084;-79
2023/03/17 08:40:17;;;;;;;0.80;0.80;;;17.40;63.80;;;;;;5058369;28;43550;-75
2023/03/17 08:42:47;;;;;;;1.00;1.00;;;17.50;63.50;;;;;;5052772;28;45922;-77
2023/03/17 08:45:17;;;;;;;0.90;0.90;;;17.50;63.30;;;;;;5060559;28;43482;-75
2023/03/17 08:47:45;;;;;;;0.90;0.90;;;17.50;63.20;;;;;;5053093;28;44178;-77
2023/03/17 08:50:17;;;;;;;1.00;1.00;;;17.50;63.40;;;;;;5058535;28;43578;-78
2023/03/17 08:52:45;;;;;;;1.00;1.00;;;17.40;63.40;;;;;;5065579;28;43854;-77
2023/03/17 08:55:14;;;;;;;1.00;1.00;;;17.40;63.70;;;;;;5059701;28;44017;-76
2023/03/17 08:57:43;;;;;;;1.00;1.00;;;17.40;63.50;;;;;;5053634;28;43420;-76
2023/03/17 09:00:14;;;;;;;0.90;0.90;;;17.40;63.60;;;;;;5062809;28;43545;-76
2023/03/17 09:02:43;;;;;;;0.93;0.93;;;17.40;63.70;;;;;;5059237;28;45472;-77
2023/03/17 09:05:12;;;;;;;1.00;1.00;;;17.30;63.60;;;;;;5059194;28;45487;-78
2023/03/17 09:07:40;;;;;;;1.00;1.00;;;17.40;63.80;;;;;;5054917;28;43455;-77
2023/03/17 09:10:09;;;;;;;1.10;1.10;;;17.30;63.60;;;;;;5058427;28;43986;-76
2023/03/17 09:12:37;;;;;;;0.90;0.90;;;17.40;63.50;;;;;;5058511;28;43683;-76
2023/03/17 09:15:06;;;;;;;1.13;1.13;;;17.50;63.20;;;;;;5059724;28;43442;-77
2023/03/17 09:17:35;;;;;;;0.90;0.90;;;17.50;62.80;;;;;;5059184;28;44247;-77
2023/03/17 09:20:05;;;;;;;1.00;1.00;;;17.50;62.60;;;;;;5055079;28;43622;-76
2023/03/17 09:22:33;;;;;;;0.90;0.90;;;17.50;62.90;;;;;;5049598;28;45783;-77
2023/03/17 09:25:01;;;;;;;1.00;1.00;;;17.50;63.00;;;;;;5057808;28;44806;-78
2023/03/17 09:27:29;;;;;;;0.90;0.90;;;17.50;63.00;;;;;;5058012;28;43520;-76
2023/03/17 09:29:57;;;;;;;1.10;1.10;;;17.50;62.90;;;;;;5057380;28;43617;-77
2023/03/17 09:32:26;;;;;;;0.90;0.90;;;17.40;63.00;;;;;;5058897;28;43993;-76
2023/03/17 09:34:56;;;;;;;1.00;1.00;;;17.40;63.20;;;;;;5058630;28;44736;-72
2023/03/17 09:37:24;;;;;;;0.80;0.80;;;17.40;63.30;;;;;;5050542;28;43415;-79
2023/03/17 09:39:52;;;;;;;1.10;1.10;;;17.40;63.50;;;;;;5056885;28;43601;-77
2023/03/17 09:42:32;;;;;;;1.10;1.10;;;17.30;63.40;;;;;;5059347;28;43909;-77
2023/03/17 09:45:12;;;;;;;0.90;0.90;;;17.30;63.20;;;;;;5058459;28;43474;-77
2023/03/17 09:47:58;;;;;;;1.07;1.07;;;17.30;63.30;;;;;;5053517;28;44157;-76
2023/03/17 09:50:28;;;;;;;1.30;1.30;;;17.30;63.50;;;;;;5056116;28;44281;-77
2023/03/17 09:52:57;;;;;;;1.20;1.20;;;17.30;63.50;;;;;;5055919;28;44355;-77
2023/03/17 09:55:27;;;;;;;1.40;1.40;;;17.20;63.50;;;;;;5055879;28;43358;-77
2023/03/17 09:57:55;;;;;;;1.37;1.37;;;17.20;63.60;;;;;;5052954;28;44005;-75
2023/03/17 10:00:26;;;;;;;1.40;1.40;;;17.30;63.40;;;;;;5060194;28;43558;-78
2023/03/17 10:02:54;;;;;;;1.60;1.60;;;17.40;63.10;;;;;;5051542;28;45784;-77
2023/03/17 10:05:23;;;;;;;1.57;1.43;;;17.50;62.90;;;;;;5072594;27;43921;-75
2023/03/17 10:07:58;;;;;;;1.40;1.40;;;17.40;62.70;;;;;;5059727;27;43459;-77
2023/03/17 10:10:29;;;;;;;1.20;1.20;;;17.50;62.90;;;;;;5060258;28;43431;-76
2023/03/17 10:13:01;;;;;;;1.43;1.43;;;17.40;63.00;;;;;;5067517;28;43860;-76
2023/03/17 10:15:33;;;;;;;1.30;1.30;;;17.40;62.90;;;;;;5064056;28;43447;-76
2023/03/17 10:18:02;;;;;;;1.10;1.10;;;17.40;63.00;;;;;;5055995;28;43462;-73
2023/03/17 10:20:32;;;;;;;1.30;1.30;;;17.40;63.10;;;;;;5060714;28;43432;-76
2023/03/17 10:23:02;;;;;;;1.17;1.17;;;17.30;63.20;;;;;;5056981;28;43947;-75
2023/03/17 10:25:32;;;;;;;1.33;1.33;;;17.30;63.30;;;;;;5053461;28;43712;-78
2023/03/17 10:28:03;;;;;;;1.10;1.10;;;17.30;63.40;;;;;;5059572;28;43510;-77
2023/03/17 10:30:34;;;;;;;1.57;1.57;;;17.30;63.30;;;;;;5053074;28;43580;-75
2023/03/17 10:33:05;;;;;;;1.40;1.40;;;17.30;63.20;;;;;;5056009;28;43828;-77
2023/03/17 10:35:35;;;;;;;1.20;1.20;;;17.30;63.40;;;;;;5050797;28;43467;-76
2023/03/17 10:38:13;;;;;;;1.13;1.13;;;17.30;63.40;;;;;;5053371;28;43488;-76
2023/03/17 10:40:41;;;;;;;1.40;1.40;;;17.20;63.40;;;;;;5053583;28;43749;-77
2023/03/17 10:43:15;;;;;;;1.27;1.27;;;17.30;63.60;;;;;;5049835;28;43836;-75
2023/03/17 10:45:47;;;;;;;1.17;1.17;;;17.20;63.40;;;;;;5056104;28;43492;-77
2023/03/17 10:48:17;;;;;;;1.27;1.13;;;17.20;63.20;;;;;;5055711;28;43829;-77
2023/03/17 10:50:45;;;;;;;1.53;1.53;;;17.30;63.50;;;;;;5053810;28;43338;-79
2023/03/17 10:53:26;;;;;;;1.10;1.10;;;17.30;63.50;;;;;;5055871;28;45684;-75
2023/03/17 10:55:57;;;;;;;1.10;1.10;;;17.30;63.60;;;;;;5055849;28;44945;-76
2023/03/17 10:58:38;;;;;;;1.20;1.20;;;17.30;63.70;;;;;;5054308;28;43435;-76
2023/03/17 11:01:07;;;;;;;1.10;1.10;;;17.20;64.10;;;;;;5053052;28;43622;-71
2023/03/17 11:03:37;;;;;;;1.00;1.00;;;17.40;63.20;;;;;;5055198;28;45514;-76
2023/03/17 11:06:09;;;;;;;1.07;1.07;;;17.40;62.80;;;;;;5057090;28;45028;-78
2023/03/17 11:08:40;;;;;;;1.27;1.27;;;17.50;62.50;;;;;;5053375;28;44063;-78
2023/03/17 11:11:10;;;;;;;1.30;1.30;;;17.50;62.30;;;;;;5051540;28;44707;-78
2023/03/17 11:13:38;;;;;;;1.27;1.27;;;17.50;62.50;;;;;;5057968;28;43606;-79
2023/03/17 11:16:10;;;;;;;1.20;1.20;;;17.50;62.50;;;;;;5053457;28;43601;-76
2023/03/17 11:18:39;;;;;;;1.10;1.10;;;17.50;62.40;;;;;;5058338;28;43483;-77
2023/03/17 11:21:09;;;;;;;0.97;0.97;;;17.50;62.60;;;;;;5054448;28;43957;-75
2023/03/17 11:23:47;;;;;;;1.10;1.10;;;17.40;62.80;;;;;;5067772;28;45605;-76
2023/03/17 11:26:36;;;;;;;1.10;1.10;;;17.40;63.00;;;;;;5056084;28;45046;-77
2023/03/17 11:29:21;;;;;;;1.10;1.10;;;17.40;63.20;;;;;;5052882;28;43426;-78
2023/03/17 11:31:53;;;;;;;1.20;1.20;;;17.30;63.00;;;;;;5058747;28;43479;-78
2023/03/17 11:34:26;;;;;;;1.10;1.10;;;17.30;62.90;;;;;;5061106;28;43666;-78
2023/03/17 11:36:55;;;;;;;1.00;1.00;;;17.30;63.10;;;;;;5050069;28;44599;-77
2023/03/17 11:39:28;;;;;;;1.20;1.10;;;17.40;63.40;;;;;;5070818;28;43468;-75
2023/03/17 11:42:02;;;;;;;0.90;0.90;;;17.30;63.40;;;;;;5056630;28;43587;-75
2023/03/17 11:44:49;;;;;;;1.10;1.10;;;17.30;63.50;;;;;;5051151;28;43603;-78
2023/03/17 11:47:26;;;;;;;1.20;1.20;;;17.20;63.20;;;;;;5048589;28;43603;-77
2023/03/17 11:49:57;;;;;;;1.00;1.00;;;17.30;63.00;;;;;;5049193;28;44283;-78
2023/03/17 11:52:28;;;;;;;0.90;0.90;;;17.40;62.70;;;;;;5052681;28;43437;-77
2023/03/17 11:55:01;;;;;;;0.90;0.90;;;17.40;62.60;;;;;;5050780;28;45885;-77
2023/03/17 11:57:31;;;;;;;1.00;1.00;;;17.50;62.90;;;;;;5053571;28;44607;-76
2023/03/17 12:00:01;;;;;;;1.07;1.07;;;17.40;62.80;;;;;;5055677;28;43489;-77
2023/03/17 12:02:40;;;;;;;0.90;0.90;;;17.40;62.80;;;;;;5055269;28;43478;-77
2023/03/17 12:05:09;;;;;;;1.00;1.00;;;17.40;62.70;;;;;;5053206;28;43965;-78
2023/03/17 12:07:39;;;;;;;1.00;1.00;;;17.40;62.80;;;;;;5053455;28;45384;-78
2023/03/17 12:10:16;;;;;;;0.90;0.90;;;17.40;63.00;;;;;;5053118;28;43495;-76
2023/03/17 12:12:47;;;;;;;0.90;0.90;;;17.30;63.00;;;;;;5053171;28;43517;-77
2023/03/17 12:15:17;;;;;;;3.17;1.00;;;17.30;63.20;;;;;;5058992;28;43891;-77
2023/03/17 12:17:50;;;;;;;3.30;1.30;;;17.30;63.90;;;;;;5050410;28;44249;-77
2023/03/17 12:20:19;;;;;;;3.93;1.27;;;17.30;62.90;;;;;;5050878;28;43470;-76
2023/03/17 12:22:49;;;;;;;0.80;0.80;;;17.30;63.10;;;;;;5062851;28;43498;-75
2023/03/17 12:25:20;;;;;;;0.97;0.97;;;17.30;63.20;;;;;;5055432;28;43951;-77
2023/03/17 12:27:52;;;;;;;1.10;1.10;;;17.30;63.20;;;;;;5061121;28;45047;-77
2023/03/17 12:30:27;;;;;;;1.43;1.40;;;17.30;63.20;;;;;;5048663;28;43486;-72
2023/03/17 12:32:59;;;;;;;3.47;1.87;;;17.30;62.80;;;;;;5057013;28;43479;-78
2023/03/17 12:35:28;;;;;;;3.87;1.40;;;17.30;61.90;;;;;;5056402;28;44041;-77
2023/03/17 12:37:58;;;;;;;3.70;1.40;;;17.40;61.60;;;;;;5051015;28;44714;-75
2023/03/17 12:40:30;;;;;;;5.70;1.23;;;17.50;61.40;;;;;;5053959;28;43423;-78
2023/03/17 12:43:06;;;;;;;4.60;1.20;;;17.50;61.40;;;;;;5059533;28;43505;-76
2023/03/17 12:45:41;;;;;;;1.03;1.03;;;17.50;61.90;;;;;;5059595;28;45648;-77
2023/03/17 12:48:19;;;;;;;3.40;1.20;;;17.50;62.20;;;;;;5048020;28;45034;-71
2023/03/17 12:51:07;;;;;;;2.33;1.20;;;17.40;61.80;;;;;;5054855;28;43418;-76
2023/03/17 12:53:36;;;;;;;1.53;1.13;;;17.40;62.00;;;;;;5053457;28;43458;-77
2023/03/17 12:56:10;;;;;;;1.37;1.27;;;17.40;62.30;;;;;;5062297;28;43997;-78
2023/03/17 12:58:39;;;;;;;1.77;1.20;;;17.40;62.50;;;;;;5054236;28;43517;-78
2023/03/17 13:01:13;;;;;;;1.83;1.20;;;17.30;62.50;;;;;;5060672;28;43928;-79